Terminal Aerodrome Forecast
Issued by NWS North Platte, NE

Home | Current Version | Previous Version | Text Only | Print | Product List | Glossary On
Versions: 1 2 3 4 5 6 7 8 9 10 11 12 13 14 15 16
566
FTUS43 KLBF 201120
TAFVTN
TAF
KVTN 201120Z 2012/2112 26009KT P6SM SCT250
     FM201600 27011G19KT P6SM BKN250
     FM210000 29009KT P6SM BKN200
     FM210600 32007KT P6SM BKN100
     FM210900 34011KT P6SM BKN060=

USA.gov is the U.S. government's official web portal to all federal, state and local government web resources and services.